createdAt,value
2022-12-31T00:02:39.491Z,14.05
2022-12-31T00:05:41.226Z,14.01
2022-12-31T00:08:43.903Z,14.26
2022-12-31T00:11:45.632Z,14.26
2022-12-31T00:14:47.264Z,14.34
2022-12-31T00:17:48.841Z,13.96
2022-12-31T00:20:50.454Z,13.93
2022-12-31T00:23:52.985Z,14.34
2022-12-31T00:26:54.630Z,14.30
2022-12-31T00:29:59.526Z,14.38
2022-12-31T00:33:05.772Z,14.33
2022-12-31T00:36:19.190Z,14.42
2022-12-31T00:39:20.785Z,14.22
2022-12-31T00:42:22.375Z,14.40
2022-12-31T00:45:23.954Z,14.39
2022-12-31T00:48:26.021Z,14.50
2022-12-31T00:51:27.928Z,14.27
2022-12-31T00:54:29.550Z,14.57
2022-12-31T00:57:31.180Z,14.44
2022-12-31T01:00:32.784Z,14.58
2022-12-31T01:03:34.363Z,14.35
2022-12-31T01:06:36.315Z,14.63
2022-12-31T01:09:37.909Z,14.59
2022-12-31T01:12:39.391Z,14.55
2022-12-31T01:15:40.955Z,14.62
2022-12-31T01:18:42.484Z,14.36
2022-12-31T01:21:45.414Z,14.69
2022-12-31T01:24:46.941Z,14.66
2022-12-31T01:27:48.419Z,14.79
2022-12-31T01:30:49.866Z,14.62
2022-12-31T01:33:52.008Z,14.58
2022-12-31T01:36:53.494Z,14.83
2022-12-31T01:39:54.948Z,14.52
2022-12-31T01:42:58.736Z,14.56
2022-12-31T01:46:00.474Z,14.73
2022-12-31T01:49:09.787Z,14.49
2022-12-31T01:52:18.430Z,14.77
2022-12-31T01:55:26.027Z,14.87
2022-12-31T01:58:49.534Z,14.90
2022-12-31T02:01:54.301Z,14.92
2022-12-31T02:04:59.188Z,14.71
2022-12-31T02:08:00.693Z,14.89
2022-12-31T02:11:02.291Z,14.82
2022-12-31T02:14:09.468Z,14.67
2022-12-31T02:17:44.407Z,14.79
2022-12-31T02:20:56.635Z,14.69
2022-12-31T02:24:18.384Z,14.63
2022-12-31T02:27:33.712Z,14.88
2022-12-31T02:30:37.261Z,14.78
2022-12-31T02:33:57.857Z,14.40
2022-12-31T02:37:03.444Z,14.75
2022-12-31T02:40:08.468Z,14.91
2022-12-31T02:43:09.989Z,14.89
2022-12-31T02:46:21.572Z,14.86
2022-12-31T02:49:32.874Z,14.85
2022-12-31T02:52:43.190Z,14.99
2022-12-31T02:56:03.621Z,15.01
2022-12-31T02:59:52.680Z,15.08
2022-12-31T03:02:55.781Z,14.82
2022-12-31T03:05:58.410Z,14.98
2022-12-31T03:09:14.716Z,14.98
2022-12-31T03:12:36.309Z,14.86
2022-12-31T03:15:38.889Z,14.81
2022-12-31T03:19:00.643Z,14.91
2022-12-31T03:22:20.474Z,14.68
2022-12-31T03:25:54.404Z,14.91
2022-12-31T03:28:55.965Z,14.90
2022-12-31T03:31:57.455Z,14.92
2022-12-31T03:34:58.876Z,14.76
2022-12-31T03:38:00.815Z,14.43
2022-12-31T03:41:02.962Z,14.83
2022-12-31T03:44:04.488Z,14.70
2022-12-31T03:47:05.962Z,14.84
2022-12-31T03:50:09.569Z,14.63
2022-12-31T03:53:11.366Z,14.80
2022-12-31T03:56:12.886Z,14.97
2022-12-31T03:59:14.310Z,14.72
2022-12-31T04:02:16.175Z,14.53
2022-12-31T04:05:19.315Z,14.91
2022-12-31T04:08:20.904Z,14.70
2022-12-31T04:11:22.388Z,14.73
2022-12-31T04:14:23.905Z,14.93
2022-12-31T04:17:26.108Z,14.87
2022-12-31T04:20:27.432Z,14.91
2022-12-31T04:23:29.013Z,14.71
2022-12-31T04:26:32.224Z,14.67
2022-12-31T04:29:33.915Z,14.73
2022-12-31T04:32:35.428Z,14.67
2022-12-31T04:35:36.931Z,14.80
2022-12-31T04:38:38.427Z,14.53
2022-12-31T04:41:39.915Z,14.57
2022-12-31T04:44:41.430Z,14.57
2022-12-31T04:47:43.044Z,14.76
2022-12-31T04:50:46.233Z,14.57
2022-12-31T04:53:48.512Z,14.58
2022-12-31T04:56:50.020Z,14.53
2022-12-31T04:59:51.529Z,14.62
2022-12-31T05:02:53.030Z,14.86
2022-12-31T05:06:00.220Z,14.69
2022-12-31T05:09:01.705Z,14.69
2022-12-31T05:12:03.250Z,14.71
2022-12-31T05:15:05.160Z,14.60
2022-12-31T05:18:07.688Z,14.88
2022-12-31T05:21:15.380Z,14.68
2022-12-31T05:24:16.846Z,14.74
2022-12-31T05:27:18.445Z,14.86
2022-12-31T05:30:20.015Z,14.82
2022-12-31T05:33:22.929Z,14.91
2022-12-31T05:36:24.401Z,14.92
2022-12-31T05:39:25.897Z,14.95
2022-12-31T05:42:27.503Z,14.95
2022-12-31T05:45:31.191Z,14.92
2022-12-31T05:48:33.226Z,14.79
2022-12-31T05:51:34.711Z,15.04
2022-12-31T05:54:36.567Z,14.91
2022-12-31T05:57:38.324Z,14.92
2022-12-31T06:00:42.788Z,15.16
2022-12-31T06:03:44.385Z,15.03
2022-12-31T06:06:45.894Z,15.17
2022-12-31T06:09:47.319Z,15.11
2022-12-31T06:12:48.781Z,14.98
2022-12-31T06:15:50.295Z,14.87
2022-12-31T06:18:51.782Z,15.14
2022-12-31T06:21:53.227Z,14.90
2022-12-31T06:24:54.657Z,15.10
2022-12-31T06:27:56.141Z,15.16
2022-12-31T06:31:01.974Z,15.23
2022-12-31T06:34:03.939Z,15.35
2022-12-31T06:37:05.427Z,15.30
2022-12-31T06:40:07.580Z,15.39
2022-12-31T06:43:09.142Z,15.25
2022-12-31T06:46:12.987Z,15.15
2022-12-31T06:49:14.585Z,15.12
2022-12-31T06:52:16.051Z,15.22
2022-12-31T06:55:17.751Z,15.14
2022-12-31T06:58:19.398Z,15.32
2022-12-31T07:01:46.672Z,15.23
2022-12-31T07:05:07.520Z,15.28
2022-12-31T07:08:29.714Z,15.20
2022-12-31T07:11:37.345Z,15.41
2022-12-31T07:14:51.597Z,15.34
2022-12-31T07:18:05.832Z,15.22
2022-12-31T07:21:16.638Z,15.47
2022-12-31T07:24:18.437Z,15.23
2022-12-31T07:28:20.644Z,15.36
2022-12-31T07:31:47.005Z,15.37
2022-12-31T07:35:03.365Z,15.42
2022-12-31T07:38:24.004Z,15.40
2022-12-31T07:41:40.466Z,15.42
2022-12-31T07:44:58.945Z,15.37
2022-12-31T07:48:02.658Z,15.65
2022-12-31T07:51:04.927Z,15.54
2022-12-31T07:54:11.853Z,15.59
2022-12-31T07:57:18.053Z,15.67
2022-12-31T08:00:19.937Z,15.77
2022-12-31T08:03:47.246Z,15.82
2022-12-31T08:06:58.229Z,16.00
2022-12-31T08:10:18.974Z,15.75
2022-12-31T08:13:21.068Z,16.08
2022-12-31T08:16:22.967Z,16.01
2022-12-31T08:19:32.745Z,16.06
2022-12-31T08:22:55.556Z,16.13
2022-12-31T08:26:11.930Z,16.07
2022-12-31T08:29:34.141Z,16.12
2022-12-31T08:32:41.410Z,16.12
2022-12-31T08:35:59.796Z,16.08
2022-12-31T08:39:26.536Z,16.10
2022-12-31T08:42:44.102Z,16.11
2022-12-31T08:45:51.165Z,16.42
2022-12-31T08:48:52.716Z,16.54
2022-12-31T08:51:54.559Z,16.51
2022-12-31T08:54:56.254Z,16.37
2022-12-31T08:58:26.664Z,16.71
2022-12-31T09:01:42.454Z,16.78
2022-12-31T09:05:14.311Z,16.74
2022-12-31T09:08:24.740Z,16.57
2022-12-31T09:11:52.507Z,16.77
2022-12-31T09:14:58.224Z,16.95
2022-12-31T09:17:59.918Z,17.12
2022-12-31T09:21:01.489Z,17.29
2022-12-31T09:24:09.204Z,17.39
2022-12-31T09:27:37.927Z,17.16
2022-12-31T09:30:54.546Z,17.24
2022-12-31T09:34:06.688Z,16.87
2022-12-31T09:37:18.331Z,17.09
2022-12-31T09:40:28.830Z,17.41
2022-12-31T09:43:50.017Z,17.21
2022-12-31T09:47:15.058Z,17.62
2022-12-31T09:50:48.712Z,17.88
2022-12-31T09:53:55.296Z,17.98
2022-12-31T09:57:20.696Z,17.71
2022-12-31T10:00:55.492Z,17.95
2022-12-31T10:04:15.735Z,17.77
2022-12-31T10:07:35.641Z,17.79
2022-12-31T10:10:54.603Z,17.87
2022-12-31T10:14:34.321Z,18.04
2022-12-31T10:18:03.984Z,18.00
2022-12-31T10:21:38.805Z,18.29
2022-12-31T10:24:49.327Z,18.25
2022-12-31T10:28:30.014Z,18.16
2022-12-31T10:32:17.699Z,18.45
2022-12-31T10:35:31.028Z,18.33
2022-12-31T10:38:39.136Z,18.58
2022-12-31T10:42:02.411Z,18.45
2022-12-31T10:45:22.632Z,18.56
2022-12-31T10:48:53.351Z,18.57
2022-12-31T10:52:26.728Z,18.24
2022-12-31T10:55:57.800Z,18.29
2022-12-31T10:59:37.681Z,18.39
2022-12-31T11:03:11.083Z,18.51
2022-12-31T11:06:50.196Z,18.63
2022-12-31T11:10:16.560Z,18.75
2022-12-31T11:13:35.226Z,19.11
2022-12-31T11:17:03.260Z,19.14
2022-12-31T11:20:29.411Z,19.00
2022-12-31T11:24:06.486Z,18.98
2022-12-31T11:27:20.897Z,18.81
2022-12-31T11:30:29.740Z,18.63
2022-12-31T11:33:56.350Z,18.69
2022-12-31T11:37:35.185Z,18.89
2022-12-31T11:40:43.596Z,18.97
2022-12-31T11:44:14.974Z,19.10
2022-12-31T11:47:26.389Z,19.14
2022-12-31T11:50:50.652Z,19.27
2022-12-31T11:53:57.502Z,19.31
2022-12-31T11:57:01.930Z,19.22
2022-12-31T12:00:09.411Z,19.54
2022-12-31T12:03:13.723Z,19.43
2022-12-31T12:06:24.798Z,19.05
2022-12-31T12:09:32.094Z,18.97
2022-12-31T12:12:41.060Z,19.06
2022-12-31T12:15:49.344Z,18.96
2022-12-31T12:19:04.803Z,19.07
2022-12-31T12:22:12.357Z,18.72
2022-12-31T12:25:20.592Z,18.43
2022-12-31T12:28:24.695Z,18.66
2022-12-31T12:31:27.464Z,18.92
2022-12-31T12:34:30.499Z,18.43
2022-12-31T12:37:35.346Z,18.83
2022-12-31T12:40:36.853Z,18.98
2022-12-31T12:43:38.871Z,18.72
2022-12-31T12:46:48.956Z,18.65
2022-12-31T12:49:54.470Z,18.63
2022-12-31T12:53:02.085Z,18.71
2022-12-31T12:56:18.827Z,18.66
2022-12-31T12:59:38.064Z,18.85
2022-12-31T13:02:57.875Z,18.57
2022-12-31T13:06:17.517Z,18.70
2022-12-31T13:09:49.129Z,18.58
2022-12-31T13:13:27.295Z,18.66
2022-12-31T13:16:38.887Z,18.59
2022-12-31T13:19:52.200Z,18.59
2022-12-31T13:23:10.526Z,18.47
2022-12-31T13:26:44.565Z,18.37
2022-12-31T13:29:47.972Z,18.50
2022-12-31T13:32:56.753Z,18.65
2022-12-31T13:36:19.161Z,18.33
2022-12-31T13:39:25.369Z,18.48
2022-12-31T13:42:43.620Z,18.43
2022-12-31T13:45:59.046Z,18.44
2022-12-31T13:49:05.052Z,18.30
2022-12-31T13:52:27.484Z,18.40
2022-12-31T13:55:46.218Z,18.47
2022-12-31T13:59:17.432Z,18.41
2022-12-31T14:02:37.976Z,18.45
2022-12-31T14:05:49.772Z,18.24
2022-12-31T14:08:53.340Z,18.23
2022-12-31T14:12:19.318Z,18.36
2022-12-31T14:15:35.009Z,18.25
2022-12-31T14:18:53.505Z,18.29
2022-12-31T14:22:12.034Z,18.05
2022-12-31T14:25:28.989Z,18.19
2022-12-31T14:28:41.754Z,18.08
2022-12-31T14:31:48.196Z,18.19
2022-12-31T14:35:00.470Z,18.13
2022-12-31T14:38:36.183Z,17.85
2022-12-31T14:42:00.301Z,18.02
2022-12-31T14:45:20.513Z,17.92
2022-12-31T14:48:40.327Z,17.98
2022-12-31T14:51:41.879Z,17.87
2022-12-31T14:54:43.373Z,18.03
2022-12-31T14:58:26.026Z,17.89
2022-12-31T15:01:22.470Z,17.85
2022-12-31T15:04:34.619Z,17.84
2022-12-31T15:08:22.376Z,17.74
2022-12-31T15:11:42.532Z,17.87
2022-12-31T15:14:55.341Z,17.81
2022-12-31T15:18:21.806Z,17.79
2022-12-31T15:21:44.718Z,17.83
2022-12-31T15:24:47.558Z,17.89
2022-12-31T15:27:49.807Z,17.89
2022-12-31T15:30:52.940Z,17.95
2022-12-31T15:34:03.118Z,17.89
2022-12-31T15:37:06.666Z,17.88
2022-12-31T15:40:21.437Z,17.84
2022-12-31T15:43:35.174Z,17.91
2022-12-31T15:46:40.972Z,17.84
2022-12-31T15:49:46.633Z,17.84
2022-12-31T15:52:56.662Z,17.76
2022-12-31T15:56:00.569Z,17.71
2022-12-31T15:59:04.955Z,17.72
2022-12-31T16:02:19.236Z,17.70
2022-12-31T16:05:24.669Z,17.73
2022-12-31T16:08:30.716Z,17.63
2022-12-31T16:11:36.974Z,17.59
2022-12-31T16:14:42.496Z,17.56
2022-12-31T16:17:45.193Z,17.57
2022-12-31T16:20:48.489Z,17.60
2022-12-31T16:23:52.169Z,17.57
2022-12-31T16:26:56.994Z,17.65
2022-12-31T16:30:16.268Z,17.50
2022-12-31T16:33:19.020Z,17.41
2022-12-31T16:36:23.080Z,17.52
2022-12-31T16:39:34.990Z,17.34
2022-12-31T16:42:44.132Z,17.31
2022-12-31T16:45:46.134Z,17.44
2022-12-31T16:48:53.433Z,17.25
2022-12-31T16:52:24.661Z,17.39
2022-12-31T16:55:28.611Z,17.28
2022-12-31T16:58:33.680Z,17.34
2022-12-31T17:01:37.644Z,17.41
2022-12-31T17:04:45.169Z,17.35
2022-12-31T17:07:50.109Z,17.41
2022-12-31T17:10:51.641Z,17.39
2022-12-31T17:14:17.903Z,17.09
2022-12-31T17:17:33.104Z,17.23
2022-12-31T17:20:34.734Z,17.28
2022-12-31T17:23:39.675Z,17.28
2022-12-31T17:26:41.732Z,17.07
2022-12-31T17:29:44.219Z,17.16
2022-12-31T17:32:47.244Z,17.07
2022-12-31T17:35:54.374Z,17.20
2022-12-31T17:38:56.029Z,17.14
2022-12-31T17:41:58.046Z,17.13
2022-12-31T17:45:02.893Z,17.25
2022-12-31T17:48:05.193Z,17.26
2022-12-31T17:51:06.799Z,17.29
2022-12-31T17:54:15.344Z,17.14
2022-12-31T17:57:25.676Z,17.17
2022-12-31T18:00:27.437Z,16.98
2022-12-31T18:03:28.933Z,17.03
2022-12-31T18:06:30.895Z,17.24
2022-12-31T18:09:32.373Z,16.91
2022-12-31T18:12:35.337Z,17.14
2022-12-31T18:15:36.822Z,17.17
2022-12-31T18:18:40.026Z,17.11
2022-12-31T18:21:43.405Z,17.18
2022-12-31T18:24:44.907Z,17.13
2022-12-31T18:27:46.526Z,17.08
2022-12-31T18:30:48.722Z,16.99
2022-12-31T18:33:51.881Z,16.98
2022-12-31T18:36:53.338Z,16.99
2022-12-31T18:39:54.809Z,17.13
2022-12-31T18:43:01.149Z,16.91
2022-12-31T18:46:06.200Z,17.13
2022-12-31T18:49:09.032Z,16.94
2022-12-31T18:52:18.637Z,16.82
2022-12-31T18:55:33.616Z,17.04
2022-12-31T18:58:35.170Z,16.75
2022-12-31T19:01:41.015Z,16.95
2022-12-31T19:04:42.613Z,16.94
2022-12-31T19:07:44.092Z,17.03
2022-12-31T19:10:47.180Z,16.90
2022-12-31T19:13:49.487Z,16.93
2022-12-31T19:16:52.601Z,17.03
2022-12-31T19:19:54.145Z,16.97
2022-12-31T19:22:56.052Z,16.85
2022-12-31T19:25:57.557Z,17.07
2022-12-31T19:28:59.058Z,16.99
2022-12-31T19:32:02.221Z,16.89
2022-12-31T19:35:04.098Z,17.12
2022-12-31T19:38:15.317Z,17.05
2022-12-31T19:41:19.573Z,17.18
2022-12-31T19:44:21.043Z,17.15
2022-12-31T19:47:22.565Z,17.19
2022-12-31T19:50:27.524Z,17.16
2022-12-31T19:53:29.101Z,17.24
2022-12-31T19:56:30.609Z,17.03
2022-12-31T19:59:32.053Z,16.89
2022-12-31T20:02:33.668Z,17.05
2022-12-31T20:05:35.288Z,17.15
2022-12-31T20:08:38.778Z,17.03
2022-12-31T20:11:40.430Z,17.19
2022-12-31T20:14:42.046Z,16.86
2022-12-31T20:17:43.776Z,16.79
2022-12-31T20:20:51.664Z,16.97
2022-12-31T20:23:56.827Z,16.86
2022-12-31T20:26:58.406Z,16.94
2022-12-31T20:29:59.904Z,16.83
2022-12-31T20:33:01.566Z,16.79
2022-12-31T20:36:08.333Z,16.88
2022-12-31T20:39:09.805Z,16.61
2022-12-31T20:42:11.338Z,16.76
2022-12-31T20:45:12.912Z,16.63
2022-12-31T20:48:14.425Z,16.52
2022-12-31T20:51:17.646Z,16.30
2022-12-31T20:54:19.139Z,16.39
2022-12-31T20:57:20.707Z,16.41
2022-12-31T21:00:22.228Z,16.26
2022-12-31T21:04:02.925Z,16.21
2022-12-31T21:06:45.277Z,16.05
2022-12-31T21:09:46.802Z,16.18
2022-12-31T21:12:53.179Z,16.12
2022-12-31T21:15:55.352Z,16.14
2022-12-31T21:18:56.743Z,16.11
2022-12-31T21:21:58.286Z,16.12
2022-12-31T21:25:01.482Z,16.17
2022-12-31T21:28:03.026Z,16.26
2022-12-31T21:31:06.746Z,16.24
2022-12-31T21:34:09.469Z,15.96
2022-12-31T21:37:11.149Z,16.18
2022-12-31T21:40:12.652Z,16.38
2022-12-31T21:43:15.403Z,16.14
2022-12-31T21:46:16.944Z,16.31
2022-12-31T21:49:18.437Z,16.30
2022-12-31T21:52:33.872Z,16.21
2022-12-31T21:55:57.110Z,16.20
2022-12-31T21:59:17.386Z,16.13
2022-12-31T22:02:37.729Z,15.92
2022-12-31T22:05:46.797Z,15.95
2022-12-31T22:08:50.678Z,16.07
2022-12-31T22:11:52.160Z,16.21
2022-12-31T22:15:15.824Z,16.16
2022-12-31T22:18:16.644Z,16.26
2022-12-31T22:21:20.547Z,16.28
2022-12-31T22:24:22.274Z,16.36
2022-12-31T22:27:28.338Z,16.33
2022-12-31T22:30:31.044Z,16.07
2022-12-31T22:33:32.530Z,16.44
2022-12-31T22:36:34.011Z,16.43
2022-12-31T22:39:43.471Z,16.29
2022-12-31T22:42:46.099Z,16.30
2022-12-31T22:45:47.567Z,16.14
2022-12-31T22:48:50.106Z,16.23
2022-12-31T22:51:57.397Z,16.43
2022-12-31T22:55:00.415Z,16.29
2022-12-31T22:58:01.888Z,16.46
2022-12-31T23:01:09.027Z,16.25
2022-12-31T23:04:10.696Z,16.42
2022-12-31T23:07:12.223Z,16.33
2022-12-31T23:10:32.005Z,16.38
2022-12-31T23:13:56.478Z,16.16
2022-12-31T23:17:29.703Z,16.09
2022-12-31T23:20:50.908Z,16.08
2022-12-31T23:23:53.593Z,16.13
2022-12-31T23:26:56.873Z,16.28
2022-12-31T23:29:58.397Z,16.23
2022-12-31T23:33:00.018Z,16.16
2022-12-31T23:36:06.450Z,16.07
2022-12-31T23:39:08.162Z,16.11
2022-12-31T23:42:09.976Z,15.99
2022-12-31T23:45:11.488Z,15.84
2022-12-31T23:48:12.962Z,15.99
2022-12-31T23:51:14.494Z,15.96
2022-12-31T23:54:16.009Z,15.82
2022-12-31T23:57:17.530Z,15.78
